Time;durP1;ratioP1;P1;durP2;ratioP2;P2;SDS_P1;SDS_P2;PMS_P1;PMS_P2;Temp;Humidity;BMP_temperature;BMP_pressure;BME280_temperature;BME280_humidity;BME280_pressure;Samples;Min_cycle;Max_cycle;Signal;HPM_P1;HPM_P2
2023/12/22 00:01:07;;;;;;;28.92;15.63;;;;;;;16.22;50.07;91308.19;5064635;28;20029;-87
2023/12/22 00:03:32;;;;;;;34.75;16.27;;;;;;;16.20;50.11;91289.66;5018156;28;20054;-86
2023/12/22 00:05:57;;;;;;;32.05;16.05;;;;;;;16.20;50.58;91321.63;5016887;28;20036;-86
2023/12/22 00:08:26;;;;;;;23.42;15.02;;;;;;;16.20;50.57;91308.72;5028809;28;20068;-87
2023/12/22 00:10:51;;;;;;;29.42;16.35;;;;;;;16.26;50.43;91330.31;5015140;28;20040;-87
2023/12/22 00:13:17;;;;;;;26.58;15.95;;;;;;;16.18;50.64;91354.88;5018146;28;20041;-88
2023/12/22 00:15:43;;;;;;;27.63;15.35;;;;;;;16.13;50.71;91349.59;5026958;28;20048;-87
2023/12/22 00:18:08;;;;;;;29.33;16.25;;;;;;;16.20;50.62;91343.44;5035347;28;20049;-86
2023/12/22 00:20:34;;;;;;;23.92;14.63;;;;;;;16.15;50.72;91347.78;5029556;28;20120;-86
2023/12/22 00:22:59;;;;;;;26.17;14.75;;;;;;;16.10;50.68;91341.25;5033470;28;20043;-87
2023/12/22 00:25:25;;;;;;;31.33;16.08;;;;;;;16.14;50.64;91340.88;5028624;28;20500;-87
2023/12/22 00:27:50;;;;;;;29.05;15.90;;;;;;;16.14;50.49;91343.63;5035072;28;20052;-88
2023/12/22 00:30:16;;;;;;;29.02;14.77;;;;;;;16.14;50.51;91335.44;5029649;28;20044;-88
2023/12/22 00:32:42;;;;;;;27.70;15.52;;;;;;;16.15;50.74;91342.34;5039246;28;20057;-87
2023/12/22 00:35:07;;;;;;;24.65;15.23;;;;;;;16.12;50.42;91351.59;5029678;28;20562;-87
2023/12/22 00:37:33;;;;;;;25.85;15.15;;;;;;;16.16;50.68;91362.88;4996591;28;20041;-87
2023/12/22 00:39:58;;;;;;;27.63;14.63;;;;;;;16.14;50.46;91376.31;5018882;28;20033;-86
2023/12/22 00:42:24;;;;;;;27.30;14.43;;;;;;;16.18;50.26;91362.34;5050629;28;20656;-87
2023/12/22 00:44:49;;;;;;;27.48;14.73;;;;;;;16.18;50.60;91359.59;5035503;28;20197;-87
2023/12/22 00:47:15;;;;;;;30.73;15.52;;;;;;;16.16;50.40;91335.63;5035454;28;20779;-87
2023/12/22 00:49:40;;;;;;;27.25;14.85;;;;;;;16.22;50.41;91324.53;5031336;28;20060;-87
2023/12/22 00:52:06;;;;;;;29.58;16.77;;;;;;;16.14;50.51;91327.25;5037144;28;20072;-87
2023/12/22 00:54:31;;;;;;;25.83;14.35;;;;;;;16.21;50.80;91331.25;5077962;28;20041;-86
2023/12/22 00:56:57;;;;;;;27.10;14.40;;;;;;;16.15;50.55;91339.63;5027705;28;20769;-86
2023/12/22 00:59:24;;;;;;;27.65;14.73;;;;;;;16.18;50.77;91356.88;5027780;28;20786;-86
2023/12/22 01:01:53;;;;;;;21.98;14.70;;;;;;;16.20;50.51;91349.63;5042758;28;20029;-86
2023/12/22 01:04:18;;;;;;;22.85;14.68;;;;;;;16.15;50.52;91399.59;5030182;28;20110;-86
2023/12/22 01:06:45;;;;;;;28.70;14.07;;;;;;;16.15;50.73;91401.59;5028115;28;20451;-86
2023/12/22 01:09:10;;;;;;;27.77;14.80;;;;;;;16.13;50.64;91410.31;5081741;28;20123;-86
2023/12/22 01:11:36;;;;;;;23.65;14.55;;;;;;;16.16;50.48;91403.75;5033456;28;20028;-88
2023/12/22 01:14:01;;;;;;;28.15;14.52;;;;;;;16.17;50.55;91407.94;5044842;28;20068;-87
2023/12/22 01:16:27;;;;;;;26.30;13.98;;;;;;;16.14;50.43;91405.56;5031662;28;20477;-87
2023/12/22 01:18:52;;;;;;;20.60;12.80;;;;;;;16.14;50.45;91432.84;5020698;28;20036;-88
2023/12/22 01:21:18;;;;;;;24.90;13.98;;;;;;;16.11;50.75;91424.47;5081651;28;20090;-87
2023/12/22 01:23:43;;;;;;;24.77;14.20;;;;;;;16.16;50.52;91416.66;5033603;28;20056;-86
2023/12/22 01:26:09;;;;;;;27.42;14.68;;;;;;;16.10;50.74;91408.66;5067134;28;20040;-87
2023/12/22 01:28:34;;;;;;;25.95;14.90;;;;;;;16.13;50.59;91377.59;5054278;28;20406;-87
2023/12/22 01:31:01;;;;;;;24.73;14.57;;;;;;;16.16;50.48;91343.78;5031438;28;20063;-87
2023/12/22 01:33:27;;;;;;;26.17;14.38;;;;;;;16.13;50.87;91346.88;5031000;28;20052;-87
2023/12/22 01:35:52;;;;;;;21.85;14.02;;;;;;;16.14;50.60;91375.59;5028669;28;20033;-87
2023/12/22 01:38:18;;;;;;;26.80;14.30;;;;;;;16.17;50.48;91386.13;5014518;28;20033;-87
2023/12/22 01:40:43;;;;;;;22.58;14.02;;;;;;;16.19;50.69;91329.06;5031852;28;20648;-86
2023/12/22 01:43:09;;;;;;;26.52;13.63;;;;;;;16.11;50.27;91359.06;5039734;28;20074;-88
2023/12/22 01:45:35;;;;;;;26.73;14.18;;;;;;;16.12;50.70;91373.41;5030985;28;20098;-86
2023/12/22 01:48:01;;;;;;;25.02;14.68;;;;;;;16.13;50.64;91402.13;5028542;28;20037;-87
2023/12/22 01:50:26;;;;;;;22.60;14.25;;;;;;;16.08;50.53;91384.66;5059238;28;20094;-87
2023/12/22 01:52:51;;;;;;;24.67;13.55;;;;;;;16.01;50.95;91333.63;5003812;28;20116;-87
2023/12/22 01:55:17;;;;;;;24.55;13.32;;;;;;;16.00;50.71;91362.16;5019241;28;20037;-88
2023/12/22 01:57:43;;;;;;;24.33;14.30;;;;;;;16.09;50.53;91388.13;5045203;28;20037;-87
2023/12/22 02:00:09;;;;;;;26.30;14.43;;;;;;;16.05;50.72;91413.00;5059365;28;20037;-87
2023/12/22 02:02:35;;;;;;;23.08;13.52;;;;;;;16.06;50.88;91417.19;5030647;28;20114;-87
2023/12/22 02:05:01;;;;;;;21.73;13.35;;;;;;;16.00;51.05;91416.66;5011619;28;20033;-87
2023/12/22 02:07:26;;;;;;;22.70;14.10;;;;;;;16.08;50.60;91392.84;5026928;28;20377;-86
2023/12/22 02:09:52;;;;;;;22.42;13.63;;;;;;;16.09;50.96;91341.78;5020641;28;20076;-87
2023/12/22 02:12:17;;;;;;;20.33;12.95;;;;;;;16.07;50.70;91330.72;5011743;28;20404;-86
2023/12/22 02:14:43;;;;;;;22.77;13.95;;;;;;;16.06;50.63;91323.81;5029298;28;20149;-86
2023/12/22 02:17:15;;;;;;;24.80;13.18;;;;;;;16.00;50.61;91318.56;5035985;28;20048;-87
2023/12/22 02:19:42;;;;;;;21.50;12.68;;;;;;;16.01;50.64;91313.84;5036440;28;20041;-87
2023/12/22 02:22:08;;;;;;;22.48;13.85;;;;;;;16.08;50.64;91326.72;5032918;28;20061;-87
2023/12/22 02:24:33;;;;;;;22.35;13.25;;;;;;;16.07;50.67;91339.59;5054270;28;20128;-87
2023/12/22 02:27:07;;;;;;;21.85;13.27;;;;;;;16.05;50.79;91355.78;5046199;28;20120;-88
2023/12/22 02:29:36;;;;;;;22.15;13.75;;;;;;;16.08;50.77;91364.88;5027510;28;20372;-87
2023/12/22 02:32:10;;;;;;;28.17;13.43;;;;;;;16.11;50.37;91377.41;5041400;28;20041;-87
2023/12/22 02:34:37;;;;;;;22.00;12.70;;;;;;;16.06;50.61;91383.75;5042221;28;20508;-88
2023/12/22 02:37:05;;;;;;;21.02;13.18;;;;;;;16.06;50.73;91373.59;5044990;28;20116;-86
2023/12/22 02:39:30;;;;;;;19.15;12.95;;;;;;;16.06;50.87;91395.38;5036617;28;20037;-87
2023/12/22 02:41:56;;;;;;;24.58;13.20;;;;;;;16.13;50.58;91382.31;5044720;28;20047;-87
2023/12/22 02:44:22;;;;;;;21.52;12.77;;;;;;;16.08;50.60;91370.31;5063063;28;20059;-86
2023/12/22 02:46:49;;;;;;;17.02;12.13;;;;;;;16.13;50.59;91404.13;5016091;28;20082;-86
2023/12/22 02:49:16;;;;;;;20.77;12.45;;;;;;;16.08;50.73;91413.91;5040430;28;20041;-87
2023/12/22 02:51:42;;;;;;;22.27;12.98;;;;;;;16.09;50.64;91399.75;5033242;28;20049;-86
2023/12/22 02:54:07;;;;;;;19.17;12.20;;;;;;;16.08;50.62;91384.66;5034823;28;20065;-87
2023/12/22 02:56:33;;;;;;;22.02;12.68;;;;;;;16.01;50.60;91382.69;4997702;28;20042;-87
2023/12/22 02:58:58;;;;;;;20.75;12.63;;;;;;;15.98;50.95;91404.84;5029010;28;20025;-87
2023/12/22 03:01:24;;;;;;;18.85;12.57;;;;;;;16.00;50.50;91413.19;5010664;28;20037;-87
2023/12/22 03:03:50;;;;;;;17.80;12.23;;;;;;;16.08;50.81;91394.84;5029144;28;20151;-86
2023/12/22 03:06:16;;;;;;;22.05;13.35;;;;;;;16.12;50.33;91357.06;5047931;28;20416;-87
2023/12/22 03:08:42;;;;;;;21.42;12.10;;;;;;;16.09;50.56;91358.13;5014876;28;20120;-87
2023/12/22 03:11:08;;;;;;;21.17;12.23;;;;;;;16.12;50.44;91340.69;5041363;28;20048;-88
2023/12/22 03:13:33;;;;;;;19.90;12.45;;;;;;;16.04;50.36;91378.13;4998999;28;20028;-87
2023/12/22 03:15:59;;;;;;;17.85;12.40;;;;;;;15.99;50.68;91396.13;5035569;28;20032;-87
2023/12/22 03:18:24;;;;;;;21.67;11.85;;;;;;;16.09;50.46;91399.03;5017369;28;20387;-87
2023/12/22 03:20:50;;;;;;;20.10;12.98;;;;;;;16.13;50.51;91404.84;5030382;28;20063;-87
2023/12/22 03:23:16;;;;;;;21.13;12.00;;;;;;;16.11;50.47;91413.56;5047980;28;20606;-87
2023/12/22 03:25:41;;;;;;;21.90;12.55;;;;;;;16.06;50.62;91411.00;5009526;28;20037;-87
2023/12/22 03:28:07;;;;;;;19.15;11.70;;;;;;;16.06;50.83;91419.91;5033335;28;20045;-88
2023/12/22 03:30:33;;;;;;;22.05;12.40;;;;;;;16.12;50.53;91433.38;5032318;28;20399;-88
2023/12/22 03:32:58;;;;;;;18.10;12.30;;;;;;;16.08;50.47;91436.47;5042225;28;20045;-87
2023/12/22 03:35:24;;;;;;;18.90;12.13;;;;;;;16.11;50.25;91429.19;5032834;28;20037;-87
2023/12/22 03:37:49;;;;;;;20.33;11.40;;;;;;;16.10;50.35;91417.56;5010774;28;20022;-88
2023/12/22 03:40:15;;;;;;;19.52;12.90;;;;;;;16.10;50.76;91428.47;5045553;28;20037;-87
2023/12/22 03:42:40;;;;;;;18.50;11.80;;;;;;;16.11;50.13;91432.66;5029654;28;20025;-87
2023/12/22 03:45:06;;;;;;;20.52;12.82;;;;;;;16.08;50.75;91427.56;5023976;28;20049;-86
2023/12/22 03:47:31;;;;;;;22.45;12.27;;;;;;;16.09;50.48;91440.63;4996445;28;20053;-86
2023/12/22 03:49:57;;;;;;;21.17;12.68;;;;;;;16.05;50.61;91418.47;5023402;28;20033;-87
2023/12/22 03:52:23;;;;;;;21.08;12.38;;;;;;;16.08;50.59;91439.19;5007688;28;20231;-88
2023/12/22 03:54:48;;;;;;;16.23;11.40;;;;;;;16.06;50.40;91457.34;5021078;28;20040;-87
2023/12/22 03:57:14;;;;;;;23.50;11.00;;;;;;;16.07;50.63;91456.06;5031612;28;20039;-87
2023/12/22 03:59:43;;;;;;;22.05;11.90;;;;;;;16.05;50.51;91445.72;5046654;28;20036;-87
2023/12/22 04:02:09;;;;;;;23.58;12.40;;;;;;;16.03;50.51;91437.34;5069737;28;20047;-86
2023/12/22 04:04:37;;;;;;;21.33;12.55;;;;;;;16.05;50.81;91428.63;5027748;28;20049;-86
2023/12/22 04:07:03;;;;;;;20.25;11.85;;;;;;;16.03;50.58;91429.19;5085865;28;20140;-88
2023/12/22 04:09:29;;;;;;;20.63;11.55;;;;;;;15.96;50.44;91438.09;5030417;28;20154;-88
2023/12/22 04:11:54;;;;;;;18.65;11.65;;;;;;;15.99;50.54;91431.56;5030127;28;20116;-87
2023/12/22 04:14:20;;;;;;;19.05;11.85;;;;;;;16.07;50.86;91439.72;5015317;28;20043;-87
2023/12/22 04:16:45;;;;;;;20.25;11.57;;;;;;;16.09;50.52;91429.72;5043864;28;20039;-87
2023/12/22 04:19:11;;;;;;;19.17;11.00;;;;;;;16.05;50.48;91432.09;5035817;28;20032;-88
2023/12/22 04:21:37;;;;;;;14.65;11.25;;;;;;;16.07;50.60;91439.72;5013467;28;20040;-88
2023/12/22 04:24:02;;;;;;;22.35;11.98;;;;;;;16.08;50.20;91441.91;5012580;28;20037;-88
2023/12/22 04:26:28;;;;;;;18.13;10.70;;;;;;;15.99;50.68;91441.72;5060013;28;20040;-87
2023/12/22 04:28:53;;;;;;;17.58;11.20;;;;;;;16.05;50.62;91434.81;5016604;28;20037;-87
2023/12/22 04:31:19;;;;;;;19.13;11.60;;;;;;;16.00;50.87;91427.56;5011954;28;20474;-87
2023/12/22 04:33:45;;;;;;;18.27;11.30;;;;;;;16.03;50.27;91418.28;5035435;28;20036;-87
2023/12/22 04:36:10;;;;;;;19.30;11.25;;;;;;;16.08;50.71;91424.81;5044806;28;20394;-89
2023/12/22 04:38:36;;;;;;;16.90;11.48;;;;;;;16.06;50.40;91421.91;5052610;28;20449;-88
2023/12/22 04:41:01;;;;;;;16.95;11.07;;;;;;;16.07;50.39;91413.19;5049383;28;20108;-87
2023/12/22 04:43:27;;;;;;;16.15;10.80;;;;;;;16.08;50.40;91409.19;5045888;28;20036;-88
2023/12/22 04:45:55;;;;;;;18.83;12.00;;;;;;;16.08;50.49;91413.91;5044956;28;20037;-88
2023/12/22 04:48:20;;;;;;;17.88;11.30;;;;;;;16.09;50.13;91401.75;5016069;28;20036;-87
2023/12/22 04:50:46;;;;;;;19.15;10.90;;;;;;;16.09;50.45;91404.47;5029074;28;20047;-89
2023/12/22 04:53:11;;;;;;;20.35;11.80;;;;;;;16.08;50.60;91417.38;4981771;28;20037;-88
2023/12/22 04:55:37;;;;;;;16.00;10.25;;;;;;;16.10;50.42;91417.56;5000272;28;20345;-87
2023/12/22 04:58:02;;;;;;;21.50;10.98;;;;;;;16.05;50.40;91415.72;5016741;28;20041;-87
2023/12/22 05:00:28;;;;;;;20.40;11.30;;;;;;;16.04;50.22;91416.28;5030803;28;20515;-87
2023/12/22 05:02:54;;;;;;;22.88;11.45;;;;;;;16.03;50.63;91423.00;5009571;28;20083;-87
2023/12/22 05:05:20;;;;;;;21.73;11.52;;;;;;;16.01;50.47;91420.84;5011565;28;20142;-88
2023/12/22 05:07:45;;;;;;;19.90;11.13;;;;;;;16.03;50.71;91426.44;5020426;28;20506;-87
2023/12/22 05:10:10;;;;;;;19.35;11.13;;;;;;;16.08;50.14;91443.91;5016053;28;20052;-87
2023/12/22 05:12:36;;;;;;;19.73;11.05;;;;;;;16.02;50.24;91430.44;5011345;28;20079;-87
2023/12/22 05:15:02;;;;;;;17.98;11.48;;;;;;;16.08;50.21;91433.00;5011431;28;20043;-87
2023/12/22 05:17:27;;;;;;;17.83;11.73;;;;;;;16.09;50.34;91418.09;5014724;28;20036;-88
2023/12/22 05:19:53;;;;;;;18.77;10.27;;;;;;;16.11;50.13;91438.09;5029625;28;20037;-86
2023/12/22 05:22:19;;;;;;;16.85;10.52;;;;;;;16.12;50.16;91436.09;5001989;28;20045;-87
2023/12/22 05:24:44;;;;;;;17.45;10.57;;;;;;;16.08;50.36;91433.72;5059426;28;20041;-88
2023/12/22 05:27:09;;;;;;;18.67;11.20;;;;;;;16.08;50.22;91436.47;5027224;28;20041;-87
2023/12/22 05:29:35;;;;;;;17.45;10.93;;;;;;;16.09;50.39;91446.09;5012118;28;20041;-87
2023/12/22 05:32:01;;;;;;;15.18;10.60;;;;;;;16.08;50.42;91431.00;5025824;28;20048;-87
2023/12/22 05:34:26;;;;;;;16.08;10.93;;;;;;;16.09;50.21;91457.00;5044286;28;20112;-88
2023/12/22 05:36:52;;;;;;;17.08;11.05;;;;;;;16.13;49.72;91436.81;5028225;28;20060;-87
2023/12/22 05:39:17;;;;;;;15.48;10.52;;;;;;;16.13;49.95;91440.28;5028047;28;20037;-87
2023/12/22 05:41:42;;;;;;;15.60;10.43;;;;;;;16.11;49.93;91440.81;5024698;28;20041;-89
2023/12/22 05:44:08;;;;;;;15.95;9.93;;;;;;;16.10;49.91;91433.91;5025260;28;20073;-87
2023/12/22 05:46:39;;;;;;;17.45;10.45;;;;;;;16.10;50.30;91428.47;5028980;28;20052;-87
2023/12/22 05:49:04;;;;;;;21.05;11.45;;;;;;;16.10;49.91;91428.47;5018076;28;20461;-87
2023/12/22 05:51:38;;;;;;;18.52;10.18;;;;;;;16.05;50.21;91450.44;5043911;28;20120;-87
2023/12/22 05:54:05;;;;;;;17.70;10.60;;;;;;;16.09;49.98;91429.72;5028053;28;20480;-86
2023/12/22 05:56:30;;;;;;;16.77;10.05;;;;;;;16.02;50.14;91435.19;5003556;28;20132;-87
2023/12/22 05:58:56;;;;;;;19.25;10.73;;;;;;;16.09;50.14;91435.19;5019882;28;20036;-87
2023/12/22 06:01:21;;;;;;;15.80;10.82;;;;;;;16.10;50.39;91447.53;5046949;28;20064;-87
2023/12/22 06:03:48;;;;;;;21.17;11.57;;;;;;;16.08;50.19;91454.81;5020802;28;20493;-86
2023/12/22 06:06:13;;;;;;;16.05;10.32;;;;;;;15.99;50.41;91444.44;5040309;28;20247;-89
2023/12/22 06:08:39;;;;;;;19.20;11.85;;;;;;;16.02;50.50;91462.44;5035536;28;20060;-87
2023/12/22 06:11:05;;;;;;;18.42;10.52;;;;;;;16.06;50.13;91460.06;4997757;28;20075;-87
2023/12/22 06:13:30;;;;;;;17.52;10.52;;;;;;;16.11;50.03;91472.81;5032521;28;20029;-87
2023/12/22 06:15:58;;;;;;;17.67;9.85;;;;;;;16.10;50.28;91469.34;5039691;28;20049;-88
2023/12/22 06:18:23;;;;;;;18.77;11.27;;;;;;;16.08;50.22;91465.72;5015848;28;20479;-86
2023/12/22 06:20:50;;;;;;;15.32;9.88;;;;;;;16.06;49.95;91452.63;5018434;28;20080;-87
2023/12/22 06:23:15;;;;;;;18.77;11.38;;;;;;;16.07;50.10;91467.69;5031307;28;20120;-86
2023/12/22 06:25:41;;;;;;;14.95;9.75;;;;;;;16.07;50.54;91454.06;4995210;28;20052;-89
2023/12/22 06:28:06;;;;;;;19.60;11.27;;;;;;;16.07;50.12;91459.53;5014131;28;20051;-87
2023/12/22 06:30:32;;;;;;;14.13;11.40;;;;;;;16.03;50.12;91472.78;5035923;28;20067;-87
2023/12/22 06:32:58;;;;;;;17.35;10.52;;;;;;;16.10;50.27;91493.16;5032984;28;20671;-87
2023/12/22 06:35:25;;;;;;;15.73;10.18;;;;;;;16.05;50.41;91497.50;5039689;28;20131;-87
2023/12/22 06:37:51;;;;;;;17.92;10.10;;;;;;;16.09;50.39;91480.78;5034848;28;20506;-87
2023/12/22 06:40:20;;;;;;;17.48;10.32;;;;;;;16.07;49.86;91473.16;5043449;28;20152;-87
2023/12/22 06:42:45;;;;;;;15.20;10.07;;;;;;;16.10;50.07;91484.97;5043824;28;20066;-87
2023/12/22 06:45:14;;;;;;;16.35;9.95;;;;;;;16.10;49.94;91487.69;5043415;28;20049;-87
2023/12/22 06:47:39;;;;;;;15.13;9.63;;;;;;;16.05;50.40;91486.59;5080823;28;20055;-87
2023/12/22 06:50:07;;;;;;;17.33;10.10;;;;;;;16.07;50.08;91496.97;5005245;28;20496;-88
2023/12/22 06:52:32;;;;;;;18.42;10.63;;;;;;;16.08;49.95;91490.25;5044101;28;20428;-87
2023/12/22 06:54:58;;;;;;;17.38;10.48;;;;;;;16.08;49.83;91498.41;5015985;28;20037;-87
2023/12/22 06:57:23;;;;;;;18.17;10.98;;;;;;;16.08;50.34;91492.97;5019291;28;20041;-88
2023/12/22 06:59:49;;;;;;;16.02;10.20;;;;;;;16.03;50.01;91486.41;5005428;28;20037;-87
2023/12/22 07:02:15;;;;;;;17.60;10.38;;;;;;;16.09;50.01;91503.31;5027221;28;20103;-87
2023/12/22 07:05:06;;;;;;;19.23;10.35;;;;;;;16.02;50.17;91512.19;5012501;28;20022;-87
2023/12/22 07:07:32;;;;;;;17.17;10.00;;;;;;;16.06;50.08;91512.59;5058290;28;20120;-88
2023/12/22 07:09:57;;;;;;;16.20;9.93;;;;;;;16.01;50.30;91501.88;5006536;28;20073;-90
2023/12/22 07:12:23;;;;;;;16.20;10.30;;;;;;;15.99;50.26;91520.75;5049402;28;20041;-89
2023/12/22 07:14:48;;;;;;;14.63;10.70;;;;;;;16.08;50.02;91531.84;5007077;28;20057;-88
2023/12/22 07:17:14;;;;;;;14.55;9.90;;;;;;;16.02;49.93;91525.81;5010223;28;20047;-88
2023/12/22 07:19:39;;;;;;;15.35;10.23;;;;;;;16.06;50.27;91545.28;5067707;28;20036;-88
2023/12/22 07:22:05;;;;;;;14.00;9.73;;;;;;;16.05;49.84;91537.66;5005953;28;20056;-89
2023/12/22 07:24:30;;;;;;;19.15;10.23;;;;;;;16.07;49.93;91548.75;4987601;28;20051;-88
2023/12/22 07:26:56;;;;;;;18.92;10.55;;;;;;;15.97;50.12;91547.81;5040037;28;20551;-89
2023/12/22 07:29:21;;;;;;;17.15;9.82;;;;;;;16.03;50.39;91551.81;5044064;28;20041;-88
2023/12/22 07:31:47;;;;;;;16.65;9.50;;;;;;;16.09;49.88;91554.38;5010872;28;20048;-86
2023/12/22 07:34:12;;;;;;;15.10;10.07;;;;;;;16.10;49.87;91553.84;5063619;28;20041;-88
2023/12/22 07:36:39;;;;;;;15.40;9.57;;;;;;;16.04;49.64;91552.53;5047409;28;20676;-87
2023/12/22 07:39:06;;;;;;;16.70;9.80;;;;;;;15.97;50.03;91562.16;4993137;28;20750;-87
2023/12/22 07:41:31;;;;;;;14.60;8.65;;;;;;;15.98;49.81;91554.72;4987602;28;20045;-88
2023/12/22 07:43:56;;;;;;;17.33;10.10;;;;;;;15.98;49.84;91558.19;4994652;28;20099;-90
2023/12/22 07:46:22;;;;;;;16.00;9.23;;;;;;;16.01;49.36;91548.94;5045697;28;20052;-87
2023/12/22 07:48:48;;;;;;;14.38;9.15;;;;;;;16.03;49.33;91540.19;5041361;28;20060;-89
2023/12/22 07:51:14;;;;;;;17.35;9.18;;;;;;;16.09;49.37;91551.66;5029388;28;20134;-87
2023/12/22 07:53:40;;;;;;;14.07;8.82;;;;;;;16.02;49.55;91557.84;5058855;28;20064;-89
2023/12/22 07:56:06;;;;;;;15.95;9.38;;;;;;;16.02;49.75;91555.09;5051781;28;20399;-88
2023/12/22 07:58:31;;;;;;;14.07;9.10;;;;;;;16.12;49.24;91558.75;5031423;28;20037;-87
2023/12/22 08:01:01;;;;;;;13.25;9.15;;;;;;;16.10;49.42;91556.56;5019706;28;20815;-90
2023/12/22 08:03:28;;;;;;;14.55;9.40;;;;;;;16.08;49.38;91550.94;5040240;28;20075;-87
2023/12/22 08:05:53;;;;;;;15.30;8.77;;;;;;;16.09;49.50;91563.28;5004426;28;20627;-88
2023/12/22 08:08:19;;;;;;;12.52;9.80;;;;;;;16.14;49.34;91569.13;5047490;28;20072;-89
2023/12/22 08:10:44;;;;;;;15.40;7.82;;;;;;;16.08;49.51;91572.72;5056873;28;20047;-89
2023/12/22 08:13:10;;;;;;;12.57;8.75;;;;;;;16.19;49.21;91579.88;5032489;28;20036;-87
2023/12/22 08:15:35;;;;;;;14.02;9.13;;;;;;;16.13;49.29;91590.19;5045350;28;20043;-89
2023/12/22 08:18:00;;;;;;;13.27;8.70;;;;;;;16.11;49.57;91579.84;5016610;28;20029;-91
2023/12/22 08:20:26;;;;;;;16.20;8.65;;;;;;;16.11;49.30;91590.75;5017489;28;20099;-88
2023/12/22 08:22:52;;;;;;;12.95;7.80;;;;;;;16.14;49.33;91593.66;5045832;28;20439;-91
2023/12/22 08:25:20;;;;;;;23.45;7.78;;;;;;;16.15;49.10;91595.13;5040244;28;20045;-90
2023/12/22 08:27:45;;;;;;;18.05;7.38;;;;;;;16.13;48.86;91584.03;5046950;28;20060;-88
2023/12/22 08:30:11;;;;;;;12.20;7.97;;;;;;;16.12;49.21;91583.28;5048802;28;20126;-89
2023/12/22 08:32:36;;;;;;;15.32;7.20;;;;;;;16.11;49.28;91585.28;5043632;28;20064;-89
2023/12/22 08:35:03;;;;;;;12.48;6.72;;;;;;;16.04;49.77;91591.44;5047902;28;20492;-89
2023/12/22 08:37:28;;;;;;;13.05;7.72;;;;;;;16.08;49.67;91591.81;5048094;28;20572;-90
2023/12/22 08:39:54;;;;;;;13.68;7.72;;;;;;;16.08;49.26;91585.63;5033382;28;20040;-89
2023/12/22 08:42:19;;;;;;;11.57;7.55;;;;;;;16.15;49.48;91589.66;5037082;28;20037;-89
2023/12/22 08:44:44;;;;;;;10.20;6.50;;;;;;;16.18;49.15;91588.59;5052866;28;20036;-89
2023/12/22 08:47:10;;;;;;;12.05;6.50;;;;;;;16.09;49.54;91582.38;5019862;28;20044;-88
2023/12/22 08:49:35;;;;;;;14.52;5.80;;;;;;;15.92;47.44;91600.47;5008522;28;20057;-89
2023/12/22 08:52:03;;;;;;;15.35;8.55;;;;;;;15.95;47.78;91607.56;5013662;28;20036;-92
2023/12/22 08:54:29;;;;;;;10.25;6.45;;;;;;;15.97;48.35;91613.94;5008551;28;20123;-90
2023/12/22 08:56:54;;;;;;;9.52;5.68;;;;;;;16.03;48.54;91614.50;5049601;28;20509;-89
2023/12/22 08:59:20;;;;;;;11.05;5.80;;;;;;;16.13;48.47;91614.72;5051804;28;20040;-89
2023/12/22 09:01:45;;;;;;;9.60;5.15;;;;;;;16.06;48.82;91623.59;5048160;28;20028;-91
2023/12/22 09:04:15;;;;;;;8.90;5.70;;;;;;;16.01;49.17;91627.97;5029931;28;20381;-91
2023/12/22 09:06:40;;;;;;;13.18;5.95;;;;;;;16.08;48.87;91642.88;5037403;28;20039;-90
2023/12/22 09:09:07;;;;;;;7.88;5.65;;;;;;;16.02;49.15;91643.03;5035698;28;20490;-92
2023/12/22 09:11:35;;;;;;;9.55;5.90;;;;;;;16.02;48.90;91629.38;5051975;28;20122;-89
2023/12/22 09:14:00;;;;;;;10.20;5.93;;;;;;;16.05;48.81;91639.22;5064234;28;20059;-89
2023/12/22 09:16:26;;;;;;;7.22;5.18;;;;;;;16.02;48.78;91634.13;5044902;28;20527;-90
2023/12/22 09:18:51;;;;;;;7.03;4.65;;;;;;;16.03;48.86;91621.94;5046591;28;20067;-90
2023/12/22 09:21:17;;;;;;;7.57;4.38;;;;;;;16.05;48.92;91633.03;5051048;28;20048;-89
2023/12/22 09:23:46;;;;;;;9.38;4.50;;;;;;;16.05;48.98;91638.50;5044018;28;20044;-90
2023/12/22 09:26:14;;;;;;;9.50;5.68;;;;;;;16.07;49.01;91639.41;5019642;28;20114;-88
2023/12/22 09:28:40;;;;;;;9.93;6.13;;;;;;;16.18;48.47;91630.22;5047942;28;20064;-89
2023/12/22 09:31:09;;;;;;;16.42;9.25;;;;;;;16.13;48.53;91644.00;5047394;28;20582;-88
2023/12/22 09:33:34;;;;;;;14.15;8.50;;;;;;;16.13;48.86;91633.09;5042921;28;20119;-88
2023/12/22 09:36:00;;;;;;;6.88;4.38;;;;;;;16.05;48.72;91628.31;5032016;28;20059;-90
2023/12/22 09:38:25;;;;;;;7.03;4.30;;;;;;;16.02;48.59;91629.38;5042134;28;20028;-90
2023/12/22 09:40:51;;;;;;;12.35;8.18;;;;;;;16.09;48.74;91634.16;5014448;28;20040;-91
2023/12/22 09:43:18;;;;;;;13.68;7.22;;;;;;;16.09;49.03;91636.16;5038357;28;20040;-91
2023/12/22 09:45:44;;;;;;;11.10;5.75;;;;;;;16.05;48.72;91638.50;5029859;28;20048;-91
2023/12/22 09:48:10;;;;;;;11.25;6.82;;;;;;;16.10;49.11;91645.78;5055627;28;20055;-87
2023/12/22 09:50:36;;;;;;;10.65;5.97;;;;;;;16.05;48.78;91649.41;5031848;28;20067;-88
2023/12/22 09:53:01;;;;;;;886.80;510.38;;;;;;;16.07;49.37;91644.13;5037209;28;20514;-89
2023/12/22 09:55:27;;;;;;;18.20;12.43;;;;;;;16.12;49.07;91651.44;5002055;28;20037;-88
2023/12/22 09:57:52;;;;;;;8.52;6.28;;;;;;;16.13;48.42;91654.88;4996187;28;20412;-88
2023/12/22 10:00:18;;;;;;;7.68;5.43;;;;;;;16.06;48.87;91653.56;5010011;28;20799;-87
2023/12/22 10:02:46;;;;;;;9.13;4.80;;;;;;;16.02;48.84;91655.94;5017795;28;20048;-91
2023/12/22 10:05:14;;;;;;;8.57;5.40;;;;;;;16.08;48.64;91670.13;5034254;28;20064;-88
2023/12/22 10:07:41;;;;;;;8.35;5.20;;;;;;;16.10;48.88;91662.88;5025032;28;20106;-89
2023/12/22 10:10:07;;;;;;;8.48;5.55;;;;;;;16.15;48.71;91649.63;5035829;28;20033;-88
2023/12/22 10:12:34;;;;;;;14.75;8.52;;;;;;;16.16;49.19;91645.63;5049918;28;20040;-87
2023/12/22 10:15:00;;;;;;;7.25;5.10;;;;;;;16.03;48.68;91646.47;5017097;28;20126;-87
2023/12/22 10:17:26;;;;;;;8.40;5.80;;;;;;;16.03;49.04;91627.41;5010734;28;20056;-87
2023/12/22 10:19:52;;;;;;;5.70;4.10;;;;;;;16.09;48.92;91628.72;5023232;28;20123;-90
2023/12/22 10:22:17;;;;;;;9.40;5.97;;;;;;;16.01;48.80;91633.41;5026958;28;20124;-88
2023/12/22 10:24:47;;;;;;;8.70;6.05;;;;;;;16.09;49.11;91625.25;5057480;28;20417;-89
2023/12/22 10:27:13;;;;;;;9.80;5.85;;;;;;;16.03;48.88;91630.13;5026114;28;20029;-92
2023/12/22 10:29:39;;;;;;;7.93;4.68;;;;;;;16.15;48.60;91641.44;5044875;28;20049;-90
2023/12/22 10:32:08;;;;;;;7.18;5.07;;;;;;;16.12;48.80;91632.34;5029062;28;20423;-89
2023/12/22 10:34:34;;;;;;;7.07;4.85;;;;;;;16.09;48.54;91644.31;4999180;28;20041;-88
2023/12/22 10:36:59;;;;;;;5.47;4.00;;;;;;;16.07;48.72;91652.31;5038962;28;20128;-88
2023/12/22 10:39:30;;;;;;;7.22;5.50;;;;;;;16.03;49.02;91646.47;5012281;28;20185;-88
2023/12/22 10:41:58;;;;;;;5.28;4.00;;;;;;;16.03;49.28;91649.19;5011681;28;20496;-87
2023/12/22 10:44:30;;;;;;;15.27;5.28;;;;;;;16.12;48.40;91659.63;5042948;28;20813;-87
2023/12/22 10:46:56;;;;;;;16.95;12.00;;;;;;;16.00;46.71;91637.41;5043958;28;20025;-92
2023/12/22 10:49:21;;;;;;;14.23;8.63;;;;;;;15.97;46.95;91662.28;5035929;28;20059;-87
2023/12/22 10:51:47;;;;;;;20.20;14.40;;;;;;;15.96;47.59;91647.91;5011172;28;20052;-88
2023/12/22 10:54:12;;;;;;;18.13;12.35;;;;;;;15.97;47.13;91646.66;5031994;28;20198;-89
2023/12/22 10:56:39;;;;;;;23.00;7.68;;;;;;;15.88;44.98;91638.97;5032880;28;20376;-87
2023/12/22 10:59:04;;;;;;;12.57;5.63;;;;;;;15.64;43.70;91642.81;5024917;28;20064;-87
2023/12/22 11:01:30;;;;;;;59.95;8.15;;;;;;;15.51;42.72;91658.50;5009155;28;20841;-88
2023/12/22 11:03:59;;;;;;;323.45;30.10;;;;;;;15.45;42.13;91642.28;5024646;28;20083;-87
2023/12/22 11:06:27;;;;;;;345.00;33.15;;;;;;;15.44;41.94;91630.69;5052929;28;20037;-88
2023/12/22 11:08:53;;;;;;;258.77;21.85;;;;;;;15.33;41.71;91633.69;5041763;28;20069;-86
2023/12/22 11:11:30;;;;;;;139.00;12.05;;;;;;;15.28;41.42;91625.66;5002239;28;20049;-90
2023/12/22 11:13:57;;;;;;;157.00;14.25;;;;;;;15.20;41.36;91628.31;5007490;28;20128;-87